Reno, NV

8:33 PM PDT en Abril 26, 2018 (GMT -0700)
Water Lily Way | | Change Station

Alt 4819 ft 39.41 °N, 119.78 °W | Updated 15 seconds ago

Muy nublado
Muy nublado
68.7 ° F
Sensación térmica 68.7 ° F
N
3.1
Viento Variable Viento desde Norte
Gusts 9.9 mph

Hoy
Alta -- | Baja -- ° F
--% Posibilidad de precipitaciones
Ayer
Alta -- | Baja -- ° F
Precip. -- pul
Presión 29.83 pul
Visibilidad 10.0 Millas
Nubes Baja 7500 ft
Muy nublado 11000 ft
Muy nublado 25000 ft
Punto de rocío 40 ° F
Humedad 34%
Precipitaciones 0.00 pul
Espesor de la nieve No disponible.
6:06 AM 7:47 PM
Gibosa creciente, 91% visible
METAR KRNO 270255Z 28010KT 10SM FEW075 BKN110 BKN250 23/00 A2995 RMK AO2 PK WND 19034/0156 WSHFT 0217 RAE18 SLP099 VIRGA P0000 60000 T02280000 50004
Presión 29.83 pul
Visibilidad 10.0 Millas
Nubes Baja 7500 ft
Muy nublado 11000 ft
Muy nublado 25000 ft
Punto de rocío 40 ° F
Humedad 34%
Precipitaciones 0.00 pul
Espesor de la nieve No disponible.
6:06 AM 7:47 PM
Gibosa creciente, 91% visible
METAR KRNO 270255Z 28010KT 10SM FEW075 BKN110 BKN250 23/00 A2995 RMK AO2 PK WND 19034/0156 WSHFT 0217 RAE18 SLP099 VIRGA P0000 60000 T02280000 50004

Get Severe Weather Alerts

Thanks for signing up!

Be on the lookout for a verification email in your inbox.

You'll start receiving the daily forecast at 6 AM.

×

10-Day Weather Forecast

Almanac

Astronomía

Apr. 26, 2018 Salida Puesta
Hora real
Crepúsculo civil
Crepúsculo náutico
Crepúsculo astronómico
Luna
Horas de luz
Horas de luz
Tomorrow will be .
, % of the Moon is Illuminated

Extremos de hoy

Máximos del estado Bajos del estado

Community

WunderPhotos

Category 6

Welcome to Category 6. This is the collective home for Weather Underground's featured writeups by Dr. Jeff Masters (right), Bob Henson (left), Chris Burt, and other regular contributors.

Nearby

Calidad del aire

  Calidad del aire Índice AQ Contaminante
Not available.

Grosos de nieve

Estación Profundido Altura

Actividad de terremotos

Ciudad Distance Mag. Tiempo y dato
Magnitud mínima muestra es 2,5.

Temperaturas de aguas costeras

Lugar Temperatura

Stations

Estaciones meteorológicas cercanas

Ubicación de la estación Temp. Vientos helados Punto de rocío Humedad Viento Precip. Alt Actualizado Tipo
                   

Watches & Warnings

There are currently no watches in effect.